createdAt,value
2018-04-25T00:00:26.089Z,100587.08
2018-04-25T00:02:53.721Z,100593.27
2018-04-25T00:05:22.203Z,100588.83
2018-04-25T00:07:49.869Z,100586.25
2018-04-25T00:10:17.529Z,100591.68
2018-04-25T00:12:45.119Z,100582.00
2018-04-25T00:15:12.757Z,100576.47
2018-04-25T00:17:41.233Z,100567.53
2018-04-25T00:20:09.646Z,100562.80
2018-04-25T00:22:37.284Z,100567.14
2018-04-25T00:25:04.911Z,100566.78
2018-04-25T00:27:32.508Z,100570.30
2018-04-25T00:30:00.086Z,100569.22
2018-04-25T00:32:27.737Z,100569.11
2018-04-25T00:34:56.241Z,100566.27
2018-04-25T00:37:24.607Z,100559.94
2018-04-25T00:39:52.308Z,100560.00
2018-04-25T00:42:19.885Z,100574.79
2018-04-25T00:44:47.464Z,100567.36
2018-04-25T00:47:15.041Z,100569.50
2018-04-25T00:49:42.709Z,100553.96
2018-04-25T00:52:10.291Z,100554.57
2018-04-25T00:54:37.897Z,100544.14
2018-04-25T00:57:05.473Z,100534.55
2018-04-25T00:59:33.150Z,100531.34
2018-04-25T01:02:00.733Z,100530.78
2018-04-25T01:04:29.292Z,100522.49
2018-04-25T01:06:57.673Z,100522.03
2018-04-25T01:09:25.283Z,100523.25
2018-04-25T01:11:53.893Z,100519.68
2018-04-25T01:14:21.489Z,100513.59
2018-04-25T01:16:49.098Z,100506.95
2018-04-25T01:19:16.718Z,100503.30
2018-04-25T01:21:44.368Z,100497.27
2018-04-25T01:24:11.950Z,100502.13
2018-04-25T01:26:39.597Z,100495.44
2018-04-25T01:29:07.181Z,100482.36
2018-04-25T01:31:37.673Z,100478.30
2018-04-25T01:34:06.881Z,100479.92
2018-04-25T01:36:37.936Z,100466.20
2018-04-25T01:39:09.477Z,100473.75
2018-04-25T01:41:37.059Z,100468.59
2018-04-25T01:44:08.530Z,100470.52
2018-04-25T01:46:36.112Z,100462.54
2018-04-25T01:49:13.173Z,100462.78
2018-04-25T01:51:52.493Z,100460.02
2018-04-25T01:54:31.858Z,100449.92
2018-04-25T01:57:11.174Z,100443.22
2018-04-25T01:59:50.509Z,100434.45
2018-04-25T02:02:17.550Z,100437.73
2018-04-25T02:04:45.129Z,100430.48
2018-04-25T02:07:13.488Z,100423.32
2018-04-25T02:09:41.103Z,100418.27
2018-04-25T02:12:08.685Z,100413.62
2018-04-25T02:14:36.293Z,100400.75
2018-04-25T02:17:03.872Z,100398.36
2018-04-25T02:19:31.502Z,100396.98
2018-04-25T02:21:59.091Z,100386.89
2018-04-25T02:24:26.682Z,100380.78
2018-04-25T02:26:54.269Z,100370.38
2018-04-25T02:29:21.854Z,100370.73
2018-04-25T02:31:49.489Z,100359.80
2018-04-25T02:34:17.069Z,100362.83
2018-04-25T02:36:44.687Z,100355.86
2018-04-25T02:39:12.306Z,100350.55
2018-04-25T02:41:39.889Z,100344.23
2018-04-25T02:44:07.506Z,100332.91
2018-04-25T02:46:35.082Z,100325.23
2018-04-25T02:49:02.711Z,100325.93
2018-04-25T02:51:30.311Z,100316.73
2018-04-25T02:53:57.923Z,100318.68
2018-04-25T02:56:25.580Z,100318.01
2018-04-25T02:58:53.176Z,100308.47
2018-04-25T03:01:20.797Z,100307.14
2018-04-25T03:03:48.409Z,100303.50
2018-04-25T03:06:16.058Z,100302.97
2018-04-25T03:08:43.677Z,100308.41
2018-04-25T03:11:11.268Z,100312.66
2018-04-25T03:13:38.882Z,100294.47
2018-04-25T03:16:06.469Z,100292.43
2018-04-25T03:18:34.051Z,100285.34
2018-04-25T03:21:01.634Z,100283.82
2018-04-25T03:23:29.252Z,100274.98
2018-04-25T03:25:56.837Z,100283.35
2018-04-25T03:28:24.422Z,100276.30
2018-04-25T03:30:52.045Z,100275.91
2018-04-25T03:33:19.633Z,100275.95
2018-04-25T03:35:47.297Z,100257.03
2018-04-25T03:38:14.961Z,100253.91
2018-04-25T03:40:42.541Z,100259.06
2018-04-25T03:43:10.121Z,100258.35
2018-04-25T03:45:37.710Z,100255.42
2018-04-25T03:48:05.289Z,100252.78
2018-04-25T03:50:33.044Z,100250.67
2018-04-25T03:53:00.614Z,100244.25
2018-04-25T03:55:28.239Z,100241.83
2018-04-25T03:57:55.831Z,100244.84
2018-04-25T04:00:23.421Z,100242.72
2018-04-25T04:02:51.002Z,100239.88
2018-04-25T04:05:18.580Z,100245.77
2018-04-25T04:07:46.157Z,100239.97
2018-04-25T04:10:14.683Z,100237.78
2018-04-25T04:12:42.261Z,100235.23
2018-04-25T04:15:09.841Z,100244.83
2018-04-25T04:17:37.422Z,100229.86
2018-04-25T04:20:05.140Z,100224.88
2018-04-25T04:22:32.721Z,100229.50
2018-04-25T04:25:01.310Z,100227.99
2018-04-25T04:27:28.894Z,100221.30
2018-04-25T04:29:56.468Z,100215.97
2018-04-25T04:32:24.050Z,100221.10
2018-04-25T04:34:51.673Z,100220.90
2018-04-25T04:37:19.258Z,100214.73
2018-04-25T04:39:46.841Z,100212.68
2018-04-25T04:42:14.421Z,100212.11
2018-04-25T04:44:42.029Z,100207.08
2018-04-25T04:47:09.610Z,100201.61
2018-04-25T04:49:38.140Z,100200.98
2018-04-25T04:52:05.751Z,100203.20
2018-04-25T04:54:33.437Z,100197.31
2018-04-25T04:57:01.065Z,100201.60
2018-04-25T04:59:28.649Z,100204.44
2018-04-25T05:01:56.320Z,100205.19
2018-04-25T05:04:23.962Z,100203.09
2018-04-25T05:06:51.710Z,100203.70
2018-04-25T05:09:20.262Z,100193.34
2018-04-25T05:11:47.934Z,100196.16
2018-04-25T05:14:15.567Z,100187.26
2018-04-25T05:16:43.161Z,100183.23
2018-04-25T05:19:10.889Z,100184.79
2018-04-25T05:21:38.474Z,100189.80
2018-04-25T05:24:06.113Z,100186.53
2018-04-25T05:26:33.778Z,100185.38
2018-04-25T05:29:01.369Z,100181.83
2018-04-25T05:31:29.004Z,100181.90
2018-04-25T05:33:56.601Z,100192.83
2018-04-25T05:36:24.219Z,100189.44
2018-04-25T05:38:51.801Z,100197.41
2018-04-25T05:41:19.421Z,100184.08
2018-04-25T05:43:47.003Z,100177.12
2018-04-25T05:46:14.678Z,100178.36
2018-04-25T05:48:42.265Z,100180.44
2018-04-25T05:51:09.862Z,100174.02
2018-04-25T05:53:37.442Z,100170.73
2018-04-25T05:56:05.029Z,100176.34
2018-04-25T05:58:32.637Z,100174.38
2018-04-25T06:01:00.224Z,100168.22
2018-04-25T06:03:27.807Z,100159.95
2018-04-25T06:05:55.426Z,100162.77
2018-04-25T06:08:23.004Z,100160.78
2018-04-25T06:10:50.615Z,100166.00
2018-04-25T06:13:18.242Z,100160.45
2018-04-25T06:15:45.908Z,100162.13
2018-04-25T06:18:13.572Z,100159.94
2018-04-25T06:20:41.958Z,100157.91
2018-04-25T06:23:09.542Z,100155.75
2018-04-25T06:25:37.165Z,100148.64
2018-04-25T06:28:04.792Z,100156.60
2018-04-25T06:30:32.370Z,100143.64
2018-04-25T06:32:59.956Z,100144.17
2018-04-25T06:35:27.540Z,100148.25
2018-04-25T06:37:55.153Z,100143.56
2018-04-25T06:40:22.733Z,100138.42
2018-04-25T06:42:50.310Z,100138.42
2018-04-25T06:45:17.897Z,100127.38
2018-04-25T06:47:45.481Z,100120.06
2018-04-25T06:50:13.126Z,100124.14
2018-04-25T06:52:40.752Z,100126.28
2018-04-25T06:55:08.345Z,100121.25
2018-04-25T06:57:35.929Z,100119.25
2018-04-25T07:00:03.536Z,100108.13
2018-04-25T07:02:31.115Z,100118.34
2018-04-25T07:04:58.703Z,100116.93
2018-04-25T07:07:26.289Z,100106.64
2018-04-25T07:09:53.877Z,100107.55
2018-04-25T07:12:21.459Z,100105.08
2018-04-25T07:14:49.078Z,100108.13
2018-04-25T07:17:16.769Z,100102.02
2018-04-25T07:19:44.351Z,100106.83
2018-04-25T07:22:11.926Z,100099.41
2018-04-25T07:24:39.515Z,100105.41
2018-04-25T07:27:07.099Z,100097.23
2018-04-25T07:29:34.689Z,100099.06
2018-04-25T07:32:02.323Z,100103.69
2018-04-25T07:34:38.080Z,100108.72
2018-04-25T07:37:05.692Z,100110.77
2018-04-25T07:39:33.269Z,100106.08
2018-04-25T07:42:00.965Z,100106.40
2018-04-25T07:44:28.481Z,100112.24
2018-04-25T07:46:56.097Z,100106.62
2018-04-25T07:49:23.665Z,100109.99
2018-04-25T07:51:51.282Z,100108.33
2018-04-25T07:54:18.862Z,100101.03
2018-04-25T07:56:46.436Z,100103.36
2018-04-25T07:59:15.923Z,100105.98
2018-04-25T08:01:43.501Z,100097.94
2018-04-25T08:04:11.115Z,100101.30
2018-04-25T08:06:38.703Z,100105.22
2018-04-25T08:09:06.314Z,100105.64
2018-04-25T08:11:33.900Z,100109.07
2018-04-25T08:14:13.260Z,100109.27
2018-04-25T08:16:52.668Z,100104.89
2018-04-25T08:19:31.984Z,100105.74
2018-04-25T08:21:59.550Z,100091.83
2018-04-25T08:24:27.122Z,100096.44
2018-04-25T08:26:54.734Z,100097.33
2018-04-25T08:29:22.306Z,100097.73
2018-04-25T08:31:49.928Z,100094.30
2018-04-25T08:34:17.616Z,100095.44
2018-04-25T08:36:45.181Z,100096.09
2018-04-25T08:39:12.788Z,100085.41
2018-04-25T08:41:40.396Z,100093.68
2018-04-25T08:44:08.004Z,100093.67
2018-04-25T08:46:35.584Z,100098.14
2018-04-25T08:49:03.176Z,100092.51
2018-04-25T08:51:30.754Z,100082.83
2018-04-25T08:53:58.338Z,100098.50
2018-04-25T08:56:25.920Z,100090.63
2018-04-25T08:58:53.531Z,100095.52
2018-04-25T09:01:21.358Z,100090.02
2018-04-25T09:03:48.932Z,100086.31
2018-04-25T09:06:16.541Z,100086.09
2018-04-25T09:08:44.114Z,100081.88
2018-04-25T09:11:11.722Z,100073.34
2018-04-25T09:13:39.302Z,100071.54
2018-04-25T09:16:06.915Z,100065.41
2018-04-25T09:18:34.493Z,100070.77
2018-04-25T09:21:02.097Z,100077.05
2018-04-25T09:23:29.676Z,100075.41
2018-04-25T09:25:57.246Z,100055.61
2018-04-25T09:28:24.821Z,100060.36
2018-04-25T09:30:52.406Z,100056.89
2018-04-25T09:33:20.026Z,100051.55
2018-04-25T09:35:47.633Z,100047.71
2018-04-25T09:38:15.214Z,100048.47
2018-04-25T09:40:42.822Z,100047.27
2018-04-25T09:43:10.401Z,100044.73
2018-04-25T09:45:37.979Z,100045.24
2018-04-25T09:48:05.554Z,100048.19
2018-04-25T09:50:33.139Z,100043.75
2018-04-25T09:53:00.714Z,100046.08
2018-04-25T09:55:28.294Z,100039.92
2018-04-25T09:57:56.045Z,100041.63
2018-04-25T10:03:23.468Z,100033.56
2018-04-25T10:05:51.126Z,100015.20
2018-04-25T10:08:18.752Z,100020.03
2018-04-25T10:10:46.358Z,100015.09
2018-04-25T10:13:13.951Z,100015.68
2018-04-25T10:15:41.531Z,100016.28
2018-04-25T10:18:09.153Z,100012.69
2018-04-25T10:20:36.729Z,100011.06
2018-04-25T10:23:04.314Z,100011.81
2018-04-25T10:25:31.926Z,100001.69
2018-04-25T10:27:59.506Z,100013.45
2018-04-25T10:30:27.087Z,100009.05
2018-04-25T10:32:54.692Z,100007.97
2018-04-25T10:35:22.313Z,99999.55
2018-04-25T10:37:49.881Z,99994.22
2018-04-25T10:40:17.458Z,99989.38
2018-04-25T10:42:45.027Z,99983.09
2018-04-25T10:45:12.601Z,99986.73
2018-04-25T10:47:40.252Z,100001.25
2018-04-25T10:50:07.827Z,99988.41
2018-04-25T10:52:35.392Z,99984.05
2018-04-25T10:55:02.970Z,99981.78
2018-04-25T10:57:30.613Z,99986.61
2018-04-25T10:59:58.181Z,99989.48
2018-04-25T11:02:25.805Z,99990.66
2018-04-25T11:04:53.361Z,99979.63
2018-04-25T11:07:20.990Z,99985.00
2018-04-25T11:09:48.554Z,99976.20
2018-04-25T11:12:16.131Z,99965.97
2018-04-25T11:14:44.439Z,99968.45
2018-04-25T11:17:12.022Z,99965.84
2018-04-25T11:19:39.632Z,99965.42
2018-04-25T11:22:07.206Z,99960.11
2018-04-25T11:24:34.858Z,99958.89
2018-04-25T11:27:02.425Z,99961.34
2018-04-25T11:29:30.007Z,99955.87
2018-04-25T11:31:57.634Z,99965.05
2018-04-25T11:34:25.186Z,99977.03
2018-04-25T11:36:53.590Z,99979.62
2018-04-25T11:39:21.169Z,99993.90
2018-04-25T11:41:48.751Z,100026.61
2018-04-25T11:44:16.373Z,100056.09
2018-04-25T11:46:43.956Z,100063.23
2018-04-25T11:49:11.535Z,100082.52
2018-04-25T11:51:39.117Z,100076.81
2018-04-25T11:54:06.689Z,100088.25
2018-04-25T11:56:34.306Z,100107.89
2018-04-25T11:59:01.887Z,100110.11
2018-04-25T12:01:29.472Z,100115.14
2018-04-25T12:03:57.105Z,100109.95
2018-04-25T12:06:24.688Z,100104.49
2018-04-25T12:08:52.264Z,100108.45
2018-04-25T12:11:19.845Z,100091.20
2018-04-25T12:13:47.430Z,100102.92
2018-04-25T12:16:15.010Z,100088.14
2018-04-25T12:18:42.602Z,100090.63
2018-04-25T12:21:10.185Z,100090.11
2018-04-25T12:23:37.757Z,100086.62
2018-04-25T12:26:05.337Z,100093.57
2018-04-25T12:28:32.911Z,100097.78
2018-04-25T12:31:00.485Z,100095.39
2018-04-25T12:33:28.098Z,100090.02
2018-04-25T12:35:55.762Z,100089.58
2018-04-25T12:38:23.289Z,100087.30
2018-04-25T12:40:51.543Z,100105.03
2018-04-25T12:43:19.406Z,100111.16
2018-04-25T12:45:46.987Z,100108.48
2018-04-25T12:48:14.630Z,100096.16
2018-04-25T12:50:42.326Z,100101.14
2018-04-25T12:53:09.963Z,100085.53
2018-04-25T12:55:38.319Z,100098.00
2018-04-25T12:58:05.968Z,100093.94
2018-04-25T13:00:33.586Z,100096.07
2018-04-25T13:03:01.175Z,100082.73
2018-04-25T13:05:28.787Z,100086.11
2018-04-25T13:07:56.361Z,100088.07
2018-04-25T13:10:24.007Z,100095.25
2018-04-25T13:12:51.591Z,100103.01
2018-04-25T13:15:19.193Z,100090.72
2018-04-25T13:17:46.766Z,100111.40
2018-04-25T13:20:14.345Z,100102.84
2018-04-25T13:22:41.917Z,100106.81
2018-04-25T13:25:09.488Z,100111.59
2018-04-25T13:27:37.070Z,100110.45
2018-04-25T13:30:04.650Z,100111.45
2018-04-25T13:32:32.240Z,100103.41
2018-04-25T13:34:59.813Z,100098.92
2018-04-25T13:37:27.414Z,100121.66
2018-04-25T13:39:55.108Z,100117.22
2018-04-25T13:42:22.749Z,100112.63
2018-04-25T13:44:50.307Z,100111.02
2018-04-25T13:47:17.889Z,100105.55
2018-04-25T13:49:45.465Z,100099.67
2018-04-25T13:52:13.983Z,100132.95
2018-04-25T13:54:41.641Z,100133.20
2018-04-25T13:57:09.218Z,100123.08
2018-04-25T13:59:36.798Z,100137.17
2018-04-25T14:02:04.502Z,100142.27
2018-04-25T14:04:32.233Z,100132.94
2018-04-25T14:06:59.856Z,100145.16
2018-04-25T14:09:27.521Z,100145.28
2018-04-25T14:11:55.225Z,100157.05
2018-04-25T14:14:22.797Z,100156.91
2018-04-25T14:16:50.370Z,100149.66
2018-04-25T14:19:17.969Z,100160.52
2018-04-25T14:21:45.544Z,100183.37
2018-04-25T14:24:13.226Z,100192.27
2018-04-25T14:26:40.803Z,100196.08
2018-04-25T14:29:08.384Z,100180.93
2018-04-25T14:31:36.872Z,100215.10
2018-04-25T14:34:04.449Z,100213.61
2018-04-25T14:36:32.056Z,100225.69
2018-04-25T14:38:59.634Z,100233.38
2018-04-25T14:41:27.242Z,100251.31
2018-04-25T14:43:55.625Z,100274.02
2018-04-25T14:46:23.202Z,100270.03
2018-04-25T14:48:50.778Z,100274.14
2018-04-25T14:51:18.356Z,100288.95
2018-04-25T14:53:45.929Z,100293.59
2018-04-25T14:56:13.502Z,100290.12
2018-04-25T14:58:41.083Z,100295.13
2018-04-25T15:01:08.664Z,100313.13
2018-04-25T15:03:36.247Z,100343.92
2018-04-25T15:08:37.626Z,100320.81
2018-04-25T15:11:05.210Z,100297.81
2018-04-25T15:13:32.809Z,100308.08
2018-04-25T15:16:00.383Z,100299.86
2018-04-25T15:18:27.952Z,100300.45
2018-04-25T15:20:55.530Z,100298.23
2018-04-25T15:23:23.106Z,100321.46
2018-04-25T15:25:50.682Z,100327.06
2018-04-25T15:28:18.262Z,100326.41
2018-04-25T15:30:45.841Z,100332.45
2018-04-25T15:33:13.417Z,100341.00
2018-04-25T15:35:40.988Z,100334.28
2018-04-25T15:38:08.561Z,100345.02
2018-04-25T15:40:36.141Z,100343.84
2018-04-25T15:43:03.714Z,100348.39
2018-04-25T15:45:31.285Z,100353.49
2018-04-25T15:47:58.865Z,100356.06
2018-04-25T15:50:26.433Z,100346.81
2018-04-25T15:52:54.005Z,100348.48
2018-04-25T15:55:21.586Z,100366.13
2018-04-25T15:57:49.873Z,100372.91
2018-04-25T16:00:17.454Z,100368.98
2018-04-25T16:02:45.100Z,100378.56
2018-04-25T16:05:12.672Z,100379.78
2018-04-25T16:07:40.246Z,100382.02
2018-04-25T16:10:07.822Z,100375.36
2018-04-25T16:12:35.455Z,100384.75
2018-04-25T16:15:03.018Z,100383.53
2018-04-25T16:17:30.609Z,100397.77
2018-04-25T16:19:58.189Z,100396.54
2018-04-25T16:22:25.884Z,100400.11
2018-04-25T16:24:53.498Z,100401.55
2018-04-25T16:27:21.075Z,100406.25
2018-04-25T16:29:49.004Z,100399.98
2018-04-25T16:32:16.583Z,100401.39
2018-04-25T16:34:44.195Z,100404.00
2018-04-25T16:37:11.864Z,100405.42
2018-04-25T16:39:39.440Z,100405.70
2018-04-25T16:42:07.018Z,100401.81
2018-04-25T16:44:34.610Z,100408.05
2018-04-25T16:47:02.261Z,100408.27
2018-04-25T16:49:29.842Z,100411.08
2018-04-25T16:51:57.418Z,100410.67
2018-04-25T16:54:24.994Z,100414.77
2018-04-25T16:56:52.587Z,100415.64
2018-04-25T16:59:20.165Z,100416.11
2018-04-25T17:01:47.751Z,100416.00
2018-04-25T17:04:15.369Z,100420.34
2018-04-25T17:06:42.955Z,100432.92
2018-04-25T17:09:10.590Z,100414.67
2018-04-25T17:11:38.173Z,100432.80
2018-04-25T17:14:05.757Z,100436.56
2018-04-25T17:16:33.343Z,100433.02
2018-04-25T17:19:00.922Z,100427.98
2018-04-25T17:21:28.497Z,100429.58
2018-04-25T17:23:56.099Z,100434.09
2018-04-25T17:26:23.674Z,100438.31
2018-04-25T17:28:51.250Z,100450.87
2018-04-25T17:31:18.894Z,100451.30
2018-04-25T17:33:46.466Z,100460.44
2018-04-25T17:36:14.054Z,100461.74
2018-04-25T17:38:41.658Z,100460.75
2018-04-25T17:41:09.275Z,100451.00
2018-04-25T17:43:36.951Z,100458.81
2018-04-25T17:46:04.530Z,100469.05
2018-04-25T17:48:32.303Z,100474.61
2018-04-25T17:50:59.884Z,100469.56
2018-04-25T17:53:27.465Z,100476.80
2018-04-25T17:55:55.067Z,100484.30
2018-04-25T17:58:22.727Z,100484.20
2018-04-25T18:00:50.310Z,100493.88
2018-04-25T18:03:18.041Z,100499.73
2018-04-25T18:05:45.577Z,100510.23
2018-04-25T18:08:14.192Z,100515.52
2018-04-25T18:10:41.771Z,100518.63
2018-04-25T18:13:09.379Z,100523.88
2018-04-25T18:15:37.013Z,100530.52
2018-04-25T18:18:04.593Z,100526.75
2018-04-25T18:20:32.167Z,100531.34
2018-04-25T18:22:59.766Z,100530.70
2018-04-25T18:25:27.360Z,100527.84
2018-04-25T18:27:55.011Z,100530.34
2018-04-25T18:30:22.726Z,100523.64
2018-04-25T18:32:50.271Z,100535.30
2018-04-25T18:35:17.886Z,100540.56
2018-04-25T18:37:45.470Z,100541.27
2018-04-25T18:40:13.489Z,100550.77
2018-04-25T18:42:41.229Z,100561.74
2018-04-25T18:45:08.941Z,100567.59
2018-04-25T18:47:36.606Z,100567.64
2018-04-25T18:50:04.305Z,100565.11
2018-04-25T18:52:31.986Z,100557.06
2018-04-25T18:54:59.694Z,100560.47
2018-04-25T18:57:27.395Z,100570.02
2018-04-25T18:59:55.022Z,100578.91
2018-04-25T19:02:22.617Z,100587.17
2018-04-25T19:04:50.201Z,100599.91
2018-04-25T19:07:17.780Z,100587.92
2018-04-25T19:09:45.358Z,100586.37
2018-04-25T19:12:12.945Z,100593.58
2018-04-25T19:14:40.593Z,100596.79
2018-04-25T19:17:08.174Z,100605.71
2018-04-25T19:19:35.780Z,100610.64
2018-04-25T19:22:03.411Z,100600.47
2018-04-25T19:24:30.994Z,100604.20
2018-04-25T19:26:58.595Z,100597.36
2018-04-25T19:29:26.259Z,100598.60
2018-04-25T19:31:53.922Z,100600.19
2018-04-25T19:34:21.533Z,100603.36
2018-04-25T19:36:49.116Z,100609.97
2018-04-25T19:39:17.610Z,100622.88
2018-04-25T19:41:45.190Z,100636.20
2018-04-25T19:44:13.068Z,100645.45
2018-04-25T19:46:40.645Z,100647.56
2018-04-25T19:49:08.228Z,100644.74
2018-04-25T19:51:35.811Z,100648.03
2018-04-25T19:54:03.399Z,100641.47
2018-04-25T19:56:30.970Z,100649.91
2018-04-25T19:58:58.556Z,100646.44
2018-04-25T20:01:26.219Z,100640.25
2018-04-25T20:03:53.846Z,100632.61
2018-04-25T20:06:21.427Z,100634.13
2018-04-25T20:08:49.123Z,100635.81
2018-04-25T20:11:16.701Z,100634.63
2018-04-25T20:13:50.650Z,100646.61
2018-04-25T20:16:18.265Z,100640.44
2018-04-25T20:18:45.842Z,100635.98
2018-04-25T20:21:13.420Z,100628.81
2018-04-25T20:23:41.138Z,100626.83
2018-04-25T20:26:09.541Z,100631.52
2018-04-25T20:28:37.116Z,100631.30
2018-04-25T20:31:04.740Z,100632.19
2018-04-25T20:33:33.053Z,100631.80
2018-04-25T20:36:01.413Z,100642.51
2018-04-25T20:38:29.849Z,100637.75
2018-04-25T20:40:57.425Z,100646.08
2018-04-25T20:43:25.066Z,100643.58
2018-04-25T20:45:52.641Z,100636.72
2018-04-25T20:48:20.210Z,100646.41
2018-04-25T20:50:47.828Z,100647.23
2018-04-25T20:53:16.131Z,100644.72
2018-04-25T20:55:43.707Z,100653.00
2018-04-25T20:58:11.350Z,100654.30
2018-04-25T21:00:38.950Z,100659.55
2018-04-25T21:03:06.527Z,100663.47
2018-04-25T21:05:34.130Z,100655.55
2018-04-25T21:08:01.706Z,100655.78
2018-04-25T21:10:29.283Z,100653.44
2018-04-25T21:12:56.894Z,100655.88
2018-04-25T21:15:24.498Z,100656.17
2018-04-25T21:17:52.075Z,100662.73
2018-04-25T21:20:19.738Z,100661.14
2018-04-25T21:22:47.315Z,100665.14
2018-04-25T21:25:14.931Z,100663.79
2018-04-25T21:27:42.512Z,100670.09
2018-04-25T21:30:10.198Z,100675.16
2018-04-25T21:32:37.779Z,100666.91
2018-04-25T21:35:05.355Z,100663.15
2018-04-25T21:37:33.036Z,100661.70
2018-04-25T21:40:00.614Z,100664.42
2018-04-25T21:42:28.191Z,100662.27
2018-04-25T21:44:55.797Z,100659.25
2018-04-25T21:47:23.379Z,100654.03
2018-04-25T21:49:50.971Z,100660.76
2018-04-25T21:52:18.559Z,100661.34
2018-04-25T21:54:46.152Z,100670.00
2018-04-25T21:57:13.736Z,100664.98
2018-04-25T21:59:41.309Z,100671.78
2018-04-25T22:02:08.882Z,100675.00
2018-04-25T22:04:36.559Z,100672.82
2018-04-25T22:07:04.138Z,100669.03
2018-04-25T22:09:31.709Z,100662.89
2018-04-25T22:11:59.347Z,100669.88
2018-04-25T22:14:27.002Z,100669.77
2018-04-25T22:16:54.579Z,100664.08
2018-04-25T22:19:22.146Z,100661.20
2018-04-25T22:21:49.787Z,100664.38
2018-04-25T22:24:17.361Z,100663.54
2018-04-25T22:26:44.939Z,100666.88
2018-04-25T22:29:12.545Z,100658.44
2018-04-25T22:31:40.117Z,100655.91
2018-04-25T22:34:07.719Z,100662.97
2018-04-25T22:36:35.291Z,100663.42
2018-04-25T22:39:02.976Z,100654.00
2018-04-25T22:41:30.544Z,100661.54
2018-04-25T22:43:58.117Z,100669.25
2018-04-25T22:46:25.690Z,100674.27
2018-04-25T22:48:53.367Z,100681.13
2018-04-25T22:51:22.759Z,100664.04
2018-04-25T22:53:50.343Z,100660.94
2018-04-25T22:56:17.915Z,100661.16
2018-04-25T22:58:45.561Z,100657.58
2018-04-25T23:01:13.201Z,100662.16
2018-04-25T23:03:40.886Z,100665.03
2018-04-25T23:06:08.461Z,100659.14
2018-04-25T23:08:36.040Z,100661.05
2018-04-25T23:11:03.621Z,100666.17
2018-04-25T23:13:31.235Z,100669.61
2018-04-25T23:15:58.930Z,100669.55
2018-04-25T23:18:26.594Z,100666.39
2018-04-25T23:20:54.172Z,100670.05
2018-04-25T23:23:21.746Z,100674.05
2018-04-25T23:25:49.318Z,100669.22
2018-04-25T23:28:16.894Z,100672.39
2018-04-25T23:30:44.518Z,100674.86
2018-04-25T23:33:12.123Z,100669.22
2018-04-25T23:35:39.741Z,100666.80
2018-04-25T23:38:07.349Z,100662.31
2018-04-25T23:40:34.927Z,100669.06
2018-04-25T23:43:02.579Z,100669.00
2018-04-25T23:45:30.155Z,100666.23
2018-04-25T23:47:57.800Z,100670.73
2018-04-25T23:50:25.381Z,100670.27
2018-04-25T23:52:52.957Z,100678.25
2018-04-25T23:55:20.535Z,100674.66
2018-04-25T23:57:48.247Z,100675.38
